BIENTÔT MET'MAP
version 2.0 !

Prévue avant fin octobre,
la nouvelle version sera
plus belle, plus complète
et hébergée sur un serveur
3 fois plus puissant...
et toujours gratuite !


Pas compatible ?
Essayez la version Mobile !

SE CONNECTER : | S'inscrire | Disclaimer | Découvrir Orbifly |
Code OACI :

TAF - EGDM MoD Boscombe Down Amesbury - 23 Feb 2020 21:56 UTC
Data Sources :     NOAA   


- Altitude de l'aérodrome : 407 ft
- Pas de NOTAMs connus.


EGDM - MoD Boscombe Down Amesbury

Dernier METAR connu : 2015/08/11 07:50 EGDM 110750Z 33003KT 9999 FEW010 SCT038 BKN170 13/11 Q1019 BLU NOSIG
Prévision TAF périmée.

Source NOAA


MET'MAP, la Météo Aéronautique d'un coup d'oeil ! - Copyright ORBIFLY Décembre 2007

Développement & Programmation : Alexandra Zaïnal
Co-Développement : Marc-Olivier Méhu
Soutien technique & logistique : Manuel Goepfert
Conception & Financement : Baudouin d'Aumeries